createdAt,value
2017-08-11T00:00:19.948Z,1012.57
2017-08-11T00:01:13.989Z,1012.56
2017-08-11T00:02:13.970Z,1012.57
2017-08-11T00:03:08.080Z,1012.62
2017-08-11T00:04:08.101Z,1012.68
2017-08-11T00:04:57.276Z,1012.67
2017-08-11T00:05:46.224Z,1012.70
2017-08-11T00:06:47.341Z,1012.75
2017-08-11T00:07:36.350Z,1012.75
2017-08-11T00:08:25.408Z,1012.76
2017-08-11T00:09:14.318Z,1012.74
2017-08-11T00:10:09.406Z,1012.72
2017-08-11T00:11:04.401Z,1012.65
2017-08-11T00:11:53.433Z,1012.67
2017-08-11T00:12:47.547Z,1012.67
2017-08-11T00:13:35.646Z,1012.67
2017-08-11T00:14:23.512Z,1012.67
2017-08-11T00:15:24.709Z,1012.68
2017-08-11T00:16:13.690Z,1012.70
2017-08-11T00:17:01.849Z,1012.70
2017-08-11T00:17:55.844Z,1012.72
2017-08-11T00:18:50.963Z,1012.74
2017-08-11T00:19:39.897Z,1012.73
2017-08-11T00:20:27.922Z,1012.70
2017-08-11T00:21:22.989Z,1012.70
2017-08-11T00:22:18.008Z,1012.72
2017-08-11T00:23:12.057Z,1012.70
2017-08-11T00:24:18.100Z,1012.69
2017-08-11T00:25:12.095Z,1012.61
2017-08-11T00:26:01.117Z,1012.60
2017-08-11T00:26:56.161Z,1012.58
2017-08-11T00:27:50.285Z,1012.59
2017-08-11T00:28:45.406Z,1012.59
2017-08-11T00:29:45.323Z,1012.55
2017-08-11T00:30:45.330Z,1012.52
2017-08-11T00:31:34.534Z,1012.51
2017-08-11T00:32:29.359Z,1012.50
2017-08-11T00:33:23.477Z,1012.49
2017-08-11T00:34:11.487Z,1012.54
2017-08-11T00:35:05.612Z,1012.50
2017-08-11T00:35:59.647Z,1012.49
2017-08-11T00:36:47.620Z,1012.48
2017-08-11T00:37:41.670Z,1012.47
2017-08-11T00:38:41.787Z,1012.47
2017-08-11T00:39:35.719Z,1012.48
2017-08-11T00:40:24.783Z,1012.47
2017-08-11T00:41:13.780Z,1012.49
2017-08-11T00:42:02.881Z,1012.47
2017-08-11T00:42:50.829Z,1012.47
2017-08-11T00:43:38.942Z,1012.49
2017-08-11T00:44:33.994Z,1012.48
2017-08-11T00:45:29.106Z,1012.49
2017-08-11T00:46:23.132Z,1012.50
2017-08-11T00:47:18.050Z,1012.50
2017-08-11T00:48:12.106Z,1012.55
2017-08-11T00:49:01.170Z,1012.54
2017-08-11T00:49:50.185Z,1012.54
2017-08-11T00:50:38.329Z,1012.48
2017-08-11T00:51:27.228Z,1012.44
2017-08-11T00:52:22.244Z,1012.40
2017-08-11T00:53:16.295Z,1012.42
2017-08-11T00:54:10.343Z,1012.39
2017-08-11T00:55:04.348Z,1012.40
2017-08-11T00:55:59.468Z,1012.37
2017-08-11T00:56:59.481Z,1012.35
2017-08-11T00:57:53.594Z,1012.33
2017-08-11T00:58:47.502Z,1012.36
2017-08-11T00:59:36.581Z,1012.33
2017-08-11T01:00:25.654Z,1012.39
2017-08-11T01:01:25.665Z,1012.38
2017-08-11T01:02:19.872Z,1012.43
2017-08-11T01:03:08.889Z,1012.43
2017-08-11T01:03:57.811Z,1012.44
2017-08-11T01:04:51.908Z,1012.48
2017-08-11T01:05:46.851Z,1012.47
2017-08-11T01:06:41.964Z,1012.45
2017-08-11T01:07:37.003Z,1012.48
2017-08-11T01:08:36.929Z,1012.48
2017-08-11T01:09:31.046Z,1012.49
2017-08-11T01:10:20.152Z,1012.49
2017-08-11T01:11:07.992Z,1012.47
2017-08-11T01:11:57.087Z,1012.47
2017-08-11T01:12:45.169Z,1012.47
2017-08-11T01:13:45.068Z,1012.46
2017-08-11T01:14:40.265Z,1012.42
2017-08-11T01:15:28.350Z,1012.45
2017-08-11T01:16:17.257Z,1012.52
2017-08-11T01:17:06.488Z,1012.47
2017-08-11T01:18:00.402Z,1012.48
2017-08-11T01:18:49.598Z,1012.48
2017-08-11T01:19:38.554Z,1012.49
2017-08-11T01:20:32.588Z,1012.49
2017-08-11T01:21:26.502Z,1012.48
2017-08-11T01:22:20.618Z,1012.47
2017-08-11T01:23:15.742Z,1012.43
2017-08-11T01:24:10.646Z,1012.41
2017-08-11T01:25:04.884Z,1012.42
2017-08-11T01:25:52.795Z,1012.40
2017-08-11T01:26:41.846Z,1012.42
2017-08-11T01:27:36.833Z,1012.40
2017-08-11T01:28:30.917Z,1012.40
2017-08-11T01:29:25.913Z,1012.38
2017-08-11T01:30:19.910Z,1012.35
2017-08-11T01:31:08.032Z,1012.32
2017-08-11T01:31:56.082Z,1012.34
2017-08-11T01:32:45.172Z,1012.31
2017-08-11T01:33:33.272Z,1012.30
2017-08-11T01:34:21.195Z,1012.30
2017-08-11T01:35:10.268Z,1012.26
2017-08-11T01:35:58.347Z,1012.30
2017-08-11T01:36:46.364Z,1012.23
2017-08-11T01:37:35.319Z,1012.26
2017-08-11T01:38:23.414Z,1012.26
2017-08-11T01:39:11.497Z,1012.24
2017-08-11T01:40:00.546Z,1012.22
2017-08-11T01:40:55.594Z,1012.24
2017-08-11T01:41:55.641Z,1012.23
2017-08-11T01:42:55.655Z,1012.21
2017-08-11T01:43:49.296Z,1012.17
2017-08-11T01:44:43.400Z,1012.12
2017-08-11T01:45:31.402Z,1012.14
2017-08-11T01:46:31.380Z,1012.07
2017-08-11T01:47:25.373Z,1012.02
2017-08-11T01:48:26.730Z,1011.98
2017-08-11T01:49:15.414Z,1011.91
2017-08-11T01:50:09.514Z,1011.93
2017-08-11T01:51:03.554Z,1011.91
2017-08-11T01:52:03.564Z,1011.90
2017-08-11T01:52:57.849Z,1011.90
2017-08-11T01:53:57.700Z,1011.95
2017-08-11T01:54:51.922Z,1011.94
2017-08-11T01:55:40.705Z,1011.99
2017-08-11T01:56:40.861Z,1012.03
2017-08-11T01:57:28.824Z,1012.01
2017-08-11T01:58:23.181Z,1012.01
2017-08-11T01:59:11.813Z,1012.00
2017-08-11T02:00:01.056Z,1011.95
2017-08-11T02:00:55.026Z,1011.96
2017-08-11T02:01:44.184Z,1011.95
2017-08-11T02:02:32.407Z,1011.93
2017-08-11T02:03:20.372Z,1011.95
2017-08-11T02:04:09.121Z,1011.92
2017-08-11T02:04:57.187Z,1011.91
2017-08-11T02:05:52.601Z,1011.88
2017-08-11T02:06:46.259Z,1011.89
2017-08-11T02:07:35.335Z,1011.88
2017-08-11T02:08:30.805Z,1011.83
2017-08-11T02:09:25.423Z,1011.84
2017-08-11T02:10:25.373Z,1011.83
2017-08-11T02:11:20.430Z,1011.81
2017-08-11T02:12:09.491Z,1011.83
2017-08-11T02:13:04.702Z,1011.80
2017-08-11T02:13:59.931Z,1011.72
2017-08-11T02:14:53.698Z,1011.73
2017-08-11T02:15:47.669Z,1011.75
2017-08-11T02:16:42.757Z,1011.72
2017-08-11T02:17:36.782Z,1011.76
2017-08-11T02:18:24.816Z,1011.75
2017-08-11T02:19:18.818Z,1011.71
2017-08-11T02:20:12.848Z,1011.72
2017-08-11T02:21:01.910Z,1011.66
2017-08-11T02:21:50.049Z,1011.70
2017-08-11T02:22:44.548Z,1011.71
2017-08-11T02:23:45.086Z,1011.69
2017-08-11T02:24:39.085Z,1011.71
2017-08-11T02:25:28.161Z,1011.68
2017-08-11T02:26:23.181Z,1011.68
2017-08-11T02:27:18.199Z,1011.66
2017-08-11T02:28:19.216Z,1011.64
2017-08-11T02:29:13.228Z,1011.60
2017-08-11T02:30:07.229Z,1011.57
2017-08-11T02:31:02.468Z,1011.55
2017-08-11T02:31:51.463Z,1011.57
2017-08-11T02:32:46.866Z,1011.56
2017-08-11T02:33:40.367Z,1011.59
2017-08-11T02:34:28.534Z,1011.55
2017-08-11T02:35:17.462Z,1011.56
2017-08-11T02:36:17.736Z,1011.54
2017-08-11T02:37:06.573Z,1011.52
2017-08-11T02:38:01.678Z,1011.57
2017-08-11T02:38:56.612Z,1011.59
2017-08-11T02:39:50.724Z,1011.59
2017-08-11T02:40:39.833Z,1011.59
2017-08-11T02:41:33.807Z,1011.61
2017-08-11T02:42:34.164Z,1011.66
2017-08-11T02:43:21.873Z,1011.67
2017-08-11T02:44:10.894Z,1011.71
2017-08-11T02:45:05.938Z,1011.62
2017-08-11T02:45:59.981Z,1011.61
2017-08-11T02:46:55.043Z,1011.62
2017-08-11T02:47:55.031Z,1011.62
2017-08-11T02:48:50.044Z,1011.59
2017-08-11T02:49:39.068Z,1011.57
2017-08-11T02:50:33.259Z,1011.58
2017-08-11T02:51:39.224Z,1011.63
2017-08-11T02:52:33.284Z,1011.63
2017-08-11T02:53:27.321Z,1011.60
2017-08-11T02:54:21.513Z,1011.59
2017-08-11T02:55:09.305Z,1011.58
2017-08-11T02:56:04.421Z,1011.59
2017-08-11T02:56:59.789Z,1011.58
2017-08-11T02:57:48.786Z,1011.57
2017-08-11T02:58:37.789Z,1011.53
2017-08-11T02:59:25.977Z,1011.54
2017-08-11T03:00:14.674Z,1011.52
2017-08-11T03:01:09.914Z,1011.48
2017-08-11T03:02:04.138Z,1011.49
2017-08-11T03:02:53.096Z,1011.47
2017-08-11T03:03:41.773Z,1011.45
2017-08-11T03:04:30.880Z,1011.46
2017-08-11T03:05:24.937Z,1011.46
2017-08-11T03:06:18.803Z,1011.47
2017-08-11T03:07:19.887Z,1011.49
2017-08-11T03:08:19.957Z,1011.51
2017-08-11T03:09:07.967Z,1011.52
2017-08-11T03:10:02.185Z,1011.52
2017-08-11T03:10:56.133Z,1011.51
2017-08-11T03:11:56.116Z,1011.52
2017-08-11T03:12:56.495Z,1011.51
2017-08-11T03:13:51.462Z,1011.50
2017-08-11T03:14:45.506Z,1011.51
2017-08-11T03:15:34.599Z,1011.50
2017-08-11T03:16:28.528Z,1011.51
2017-08-11T03:17:23.662Z,1011.51
2017-08-11T03:18:23.725Z,1011.50
2017-08-11T03:19:18.803Z,1011.54
2017-08-11T03:20:12.671Z,1011.53
2017-08-11T03:21:07.917Z,1011.54
2017-08-11T03:21:56.877Z,1011.60
2017-08-11T03:22:50.999Z,1011.58
2017-08-11T03:23:44.911Z,1011.60
2017-08-11T03:24:33.700Z,1011.61
2017-08-11T03:25:33.700Z,1011.60
2017-08-11T03:26:28.747Z,1011.59
2017-08-11T03:27:22.827Z,1011.55
2017-08-11T03:28:12.293Z,1011.56
2017-08-11T03:29:06.072Z,1011.57
2017-08-11T03:29:55.349Z,1011.55
2017-08-11T03:30:50.339Z,1011.59
2017-08-11T03:31:44.256Z,1011.55
2017-08-11T03:32:38.085Z,1011.56
2017-08-11T03:33:32.652Z,1011.58
2017-08-11T03:34:33.485Z,1011.51
2017-08-11T03:35:27.581Z,1011.50
2017-08-11T03:36:16.477Z,1011.52
2017-08-11T03:37:10.991Z,1011.49
2017-08-11T03:37:59.618Z,1011.45
2017-08-11T03:38:48.649Z,1011.45
2017-08-11T03:39:42.641Z,1011.43
2017-08-11T03:40:37.707Z,1011.43
2017-08-11T03:41:31.733Z,1011.38
2017-08-11T03:42:25.761Z,1011.31
2017-08-11T03:43:19.883Z,1011.30
2017-08-11T03:44:14.830Z,1011.31
2017-08-11T03:45:08.916Z,1011.30
2017-08-11T03:46:09.951Z,1011.32
2017-08-11T03:47:05.076Z,1011.30
2017-08-11T03:48:00.089Z,1011.31
2017-08-11T03:48:54.994Z,1011.32
2017-08-11T03:49:55.172Z,1011.35
2017-08-11T03:50:50.227Z,1011.32
2017-08-11T03:51:39.215Z,1011.35
2017-08-11T03:52:28.219Z,1011.34
2017-08-11T03:53:16.175Z,1011.35
2017-08-11T03:54:05.295Z,1011.32
2017-08-11T03:55:00.307Z,1011.36
2017-08-11T03:55:54.256Z,1011.30
2017-08-11T03:56:54.274Z,1011.28
2017-08-11T03:57:49.430Z,1011.30
2017-08-11T03:58:37.081Z,1011.29
2017-08-11T03:59:25.053Z,1011.32
2017-08-11T04:00:13.231Z,1011.32
2017-08-11T04:01:14.494Z,1011.31
2017-08-11T04:02:08.711Z,1011.34
2017-08-11T04:02:56.499Z,1011.38
2017-08-11T04:03:45.332Z,1011.36
2017-08-11T04:04:39.501Z,1011.34
2017-08-11T04:05:28.611Z,1011.34
2017-08-11T04:06:29.495Z,1011.29
2017-08-11T04:07:17.509Z,1011.25
2017-08-11T04:08:06.972Z,1011.27
2017-08-11T04:09:00.886Z,1011.27
2017-08-11T04:09:55.945Z,1011.22
2017-08-11T04:10:44.006Z,1011.23
2017-08-11T04:11:38.104Z,1011.21
2017-08-11T04:12:38.092Z,1011.22
2017-08-11T04:13:33.226Z,1011.20
2017-08-11T04:14:33.200Z,1011.15
2017-08-11T04:15:22.271Z,1011.14
2017-08-11T04:16:16.276Z,1011.14
2017-08-11T04:17:05.332Z,1011.16
2017-08-11T04:17:59.351Z,1011.16
2017-08-11T04:18:59.351Z,1011.19
2017-08-11T04:19:59.441Z,1011.20
2017-08-11T04:20:54.539Z,1011.18
2017-08-11T04:21:49.595Z,1011.18
2017-08-11T04:22:43.482Z,1011.17
2017-08-11T04:23:37.582Z,1011.20
2017-08-11T04:24:31.619Z,1011.13
2017-08-11T04:25:26.700Z,1011.15
2017-08-11T04:26:14.734Z,1011.11
2017-08-11T04:27:14.771Z,1011.11
2017-08-11T04:28:09.874Z,1011.12
2017-08-11T04:29:03.829Z,1011.16
2017-08-11T04:30:03.919Z,1011.13
2017-08-11T04:31:03.894Z,1011.12
2017-08-11T04:32:03.937Z,1011.14
2017-08-11T04:32:58.945Z,1011.19
2017-08-11T04:33:53.948Z,1011.16
2017-08-11T04:34:42.020Z,1011.17
2017-08-11T04:35:36.098Z,1011.20
2017-08-11T04:36:25.242Z,1011.18
2017-08-11T04:37:14.145Z,1011.19
2017-08-11T04:38:03.201Z,1011.22
2017-08-11T04:39:03.339Z,1011.19
2017-08-11T04:39:52.277Z,1011.24
2017-08-11T04:40:40.327Z,1011.19
2017-08-11T04:41:34.460Z,1011.19
2017-08-11T04:42:28.493Z,1011.22
2017-08-11T04:43:23.464Z,1011.19
2017-08-11T04:44:12.614Z,1011.25
2017-08-11T04:45:06.611Z,1011.25
2017-08-11T04:46:00.612Z,1011.26
2017-08-11T04:46:49.690Z,1011.26
2017-08-11T04:47:49.955Z,1011.26
2017-08-11T04:48:38.693Z,1011.29
2017-08-11T04:49:32.756Z,1011.27
2017-08-11T04:50:26.745Z,1011.27
2017-08-11T04:51:14.845Z,1011.26
2017-08-11T04:52:02.990Z,1011.24
2017-08-11T04:52:56.939Z,1011.26
2017-08-11T04:53:50.952Z,1011.23
2017-08-11T04:54:39.065Z,1011.22
2017-08-11T04:55:27.066Z,1011.16
2017-08-11T04:56:27.031Z,1011.21
2017-08-11T04:57:22.139Z,1011.25
2017-08-11T04:58:17.143Z,1011.25
2017-08-11T04:59:12.257Z,1011.29
2017-08-11T05:00:07.225Z,1011.27
2017-08-11T05:01:07.197Z,1011.31
2017-08-11T05:02:02.339Z,1011.27
2017-08-11T05:02:57.346Z,1011.28
2017-08-11T05:03:51.433Z,1011.26
2017-08-11T05:04:57.381Z,1011.23
2017-08-11T05:05:51.440Z,1011.19
2017-08-11T05:06:51.530Z,1011.21
2017-08-11T05:07:46.531Z,1011.16
2017-08-11T05:08:40.554Z,1011.12
2017-08-11T05:09:40.617Z,1011.08
2017-08-11T05:10:34.573Z,1011.08
2017-08-11T05:11:22.688Z,1011.06
2017-08-11T05:12:10.652Z,1011.04
2017-08-11T05:12:59.755Z,1011.03
2017-08-11T05:13:47.835Z,1011.01
2017-08-11T05:14:47.852Z,1010.98
2017-08-11T05:15:36.950Z,1010.96
2017-08-11T05:16:36.936Z,1010.93
2017-08-11T05:17:30.968Z,1010.93
2017-08-11T05:18:25.965Z,1010.93
2017-08-11T05:19:15.111Z,1010.93
2017-08-11T05:20:10.070Z,1010.98
2017-08-11T05:21:04.134Z,1010.96
2017-08-11T05:21:53.204Z,1010.93
2017-08-11T05:22:42.184Z,1010.99
2017-08-11T05:23:36.213Z,1010.97
2017-08-11T05:24:30.328Z,1010.94
2017-08-11T05:25:24.270Z,1010.93
2017-08-11T05:26:18.328Z,1010.94
2017-08-11T05:27:18.349Z,1010.99
2017-08-11T05:28:13.399Z,1010.97
2017-08-11T05:29:07.598Z,1010.96
2017-08-11T05:30:01.679Z,1010.93
2017-08-11T05:30:55.599Z,1010.98
2017-08-11T05:31:43.589Z,1010.94
2017-08-11T05:32:32.714Z,1010.93
2017-08-11T05:33:27.625Z,1010.88
2017-08-11T05:34:27.727Z,1010.90
2017-08-11T05:35:27.775Z,1010.87
2017-08-11T05:36:27.861Z,1010.87
2017-08-11T05:37:22.876Z,1010.87
2017-08-11T05:38:17.823Z,1010.84
2017-08-11T05:39:17.829Z,1010.89
2017-08-11T05:40:12.012Z,1010.86
2017-08-11T05:41:07.045Z,1010.86
2017-08-11T05:42:06.973Z,1010.89
2017-08-11T05:42:56.205Z,1010.84
2017-08-11T05:43:50.062Z,1010.84
2017-08-11T05:44:50.217Z,1010.86
2017-08-11T05:45:50.203Z,1010.84
2017-08-11T05:46:44.307Z,1010.84
2017-08-11T05:47:33.388Z,1010.82
2017-08-11T05:48:27.293Z,1010.85
2017-08-11T05:49:21.355Z,1010.85
2017-08-11T05:50:10.419Z,1010.82
2017-08-11T05:51:05.392Z,1010.87
2017-08-11T05:52:00.552Z,1010.86
2017-08-11T05:52:48.668Z,1010.87
2017-08-11T05:53:42.462Z,1010.87
2017-08-11T05:54:36.590Z,1010.90
2017-08-11T05:55:36.708Z,1010.91
2017-08-11T05:56:30.693Z,1010.92
2017-08-11T05:57:24.739Z,1010.89
2017-08-11T05:58:12.737Z,1010.90
2017-08-11T05:59:12.729Z,1010.93
2017-08-11T06:00:00.857Z,1010.93
2017-08-11T06:01:00.889Z,1010.96
2017-08-11T06:01:55.875Z,1010.94
2017-08-11T06:02:50.965Z,1010.94
2017-08-11T06:03:45.015Z,1010.99
2017-08-11T06:04:44.987Z,1010.98
2017-08-11T06:05:40.103Z,1010.97
2017-08-11T06:06:40.129Z,1010.97
2017-08-11T06:07:40.170Z,1010.97
2017-08-11T06:08:40.143Z,1010.99
2017-08-11T06:09:34.243Z,1010.95
2017-08-11T06:10:34.199Z,1010.98
2017-08-11T06:11:28.226Z,1010.98
2017-08-11T06:12:28.367Z,1011.00
2017-08-11T06:13:17.383Z,1010.93
2017-08-11T06:14:11.467Z,1010.96
2017-08-11T06:15:05.475Z,1010.95
2017-08-11T06:16:00.500Z,1010.93
2017-08-11T06:16:55.574Z,1010.90
2017-08-11T06:17:49.676Z,1010.88
2017-08-11T06:18:44.597Z,1010.86
2017-08-11T06:19:39.657Z,1010.85
2017-08-11T06:20:27.730Z,1010.81
2017-08-11T06:21:21.681Z,1010.84
2017-08-11T06:22:21.841Z,1010.84
2017-08-11T06:23:09.876Z,1010.87
2017-08-11T06:24:04.826Z,1010.89
2017-08-11T06:24:59.989Z,1010.87
2017-08-11T06:25:49.030Z,1010.84
2017-08-11T06:26:43.060Z,1010.86
2017-08-11T06:27:42.995Z,1010.83
2017-08-11T06:28:37.068Z,1010.82
2017-08-11T06:29:26.222Z,1010.82
2017-08-11T06:30:14.242Z,1010.84
2017-08-11T06:31:03.224Z,1010.82
2017-08-11T06:31:51.307Z,1010.82
2017-08-11T06:32:40.316Z,1010.83
2017-08-11T06:33:29.376Z,1010.83
2017-08-11T06:34:17.399Z,1010.86
2017-08-11T06:35:11.503Z,1010.80
2017-08-11T06:36:00.452Z,1010.83
2017-08-11T06:36:49.590Z,1010.80
2017-08-11T06:37:44.652Z,1010.83
2017-08-11T06:38:44.663Z,1010.81
2017-08-11T06:39:38.672Z,1010.83
2017-08-11T06:40:27.709Z,1010.83
2017-08-11T06:41:22.891Z,1010.84
2017-08-11T06:42:16.791Z,1010.79
2017-08-11T06:43:16.806Z,1010.82
2017-08-11T06:44:11.819Z,1010.86
2017-08-11T06:45:00.930Z,1010.83
2017-08-11T06:45:49.904Z,1010.82
2017-08-11T06:46:43.943Z,1010.86
2017-08-11T06:47:44.987Z,1010.87
2017-08-11T06:48:39.158Z,1010.85
2017-08-11T06:49:28.064Z,1010.85
2017-08-11T06:50:29.201Z,1010.85
2017-08-11T06:51:29.149Z,1010.86
2017-08-11T06:52:17.268Z,1010.89
2017-08-11T06:53:05.305Z,1010.86
2017-08-11T06:53:54.284Z,1010.88
2017-08-11T06:54:48.330Z,1010.91
2017-08-11T06:55:54.282Z,1010.95
2017-08-11T06:56:49.373Z,1010.93
2017-08-11T06:57:43.436Z,1010.92
2017-08-11T06:58:31.381Z,1010.98
2017-08-11T06:59:19.564Z,1010.92
2017-08-11T07:00:20.634Z,1010.90
2017-08-11T07:01:21.649Z,1010.92
2017-08-11T07:02:15.658Z,1010.97
2017-08-11T07:03:03.717Z,1011.00
2017-08-11T07:03:52.742Z,1010.95
2017-08-11T07:04:46.796Z,1010.96
2017-08-11T07:05:41.843Z,1010.99
2017-08-11T07:06:35.958Z,1011.02
2017-08-11T07:07:36.906Z,1011.01
2017-08-11T07:08:31.981Z,1011.00
2017-08-11T07:09:25.966Z,1011.05
2017-08-11T07:10:25.950Z,1011.02
2017-08-11T07:11:20.958Z,1011.01
2017-08-11T07:12:21.057Z,1011.02
2017-08-11T07:13:22.103Z,1011.00
2017-08-11T07:14:16.149Z,1010.98
2017-08-11T07:15:04.269Z,1010.98
2017-08-11T07:15:53.205Z,1011.00
2017-08-11T07:16:47.267Z,1010.94
2017-08-11T07:17:36.413Z,1010.90
2017-08-11T07:18:25.474Z,1010.90
2017-08-11T07:19:13.436Z,1010.81
2017-08-11T07:20:08.522Z,1010.82
2017-08-11T07:21:03.480Z,1010.84
2017-08-11T07:21:58.543Z,1010.79
2017-08-11T07:22:47.559Z,1010.76
2017-08-11T07:23:35.702Z,1010.79
2017-08-11T07:24:35.753Z,1010.78
2017-08-11T07:25:24.754Z,1010.79
2017-08-11T07:26:18.834Z,1010.80
2017-08-11T07:27:18.826Z,1010.81
2017-08-11T07:28:12.918Z,1010.80
2017-08-11T07:29:12.900Z,1010.83
2017-08-11T07:30:07.022Z,1010.85
2017-08-11T07:31:01.949Z,1010.83
2017-08-11T07:31:55.937Z,1010.84
2017-08-11T07:32:45.092Z,1010.84
2017-08-11T07:33:33.109Z,1010.91
2017-08-11T07:34:27.181Z,1010.82
2017-08-11T07:35:15.250Z,1010.84
2017-08-11T07:36:09.301Z,1010.84
2017-08-11T07:37:04.403Z,1010.82
2017-08-11T07:37:59.275Z,1010.79
2017-08-11T07:38:53.298Z,1010.81
2017-08-11T07:39:48.411Z,1010.76
2017-08-11T07:40:42.471Z,1010.79
2017-08-11T07:41:36.590Z,1010.84
2017-08-11T07:42:25.620Z,1010.85
2017-08-11T07:43:19.562Z,1010.85
2017-08-11T07:44:19.634Z,1010.93
2017-08-11T07:45:14.707Z,1010.89
2017-08-11T07:46:03.785Z,1010.89
2017-08-11T07:47:03.713Z,1010.94
2017-08-11T07:47:57.791Z,1010.89
2017-08-11T07:48:52.839Z,1010.93
2017-08-11T07:49:40.936Z,1010.90
2017-08-11T07:50:35.951Z,1010.79
2017-08-11T07:51:30.976Z,1010.83
2017-08-11T07:52:20.491Z,1010.86
2017-08-11T07:53:08.198Z,1010.85
2017-08-11T07:54:02.113Z,1010.82
2017-08-11T07:55:02.148Z,1010.88
2017-08-11T07:55:56.272Z,1010.88
2017-08-11T07:56:45.237Z,1010.84
2017-08-11T07:57:39.391Z,1010.81
2017-08-11T07:58:34.663Z,1010.87
2017-08-11T07:59:28.598Z,1010.88
2017-08-11T08:00:16.591Z,1010.87
2017-08-11T08:01:10.423Z,1010.87
2017-08-11T08:02:04.520Z,1010.84
2017-08-11T08:02:59.472Z,1010.91
2017-08-11T08:03:53.548Z,1010.87
2017-08-11T08:04:48.640Z,1010.89
2017-08-11T08:05:37.706Z,1010.87
2017-08-11T08:06:32.701Z,1010.87
2017-08-11T08:07:27.766Z,1010.91
2017-08-11T08:08:21.857Z,1010.86
2017-08-11T08:09:15.885Z,1010.91
2017-08-11T08:10:09.882Z,1010.89
2017-08-11T08:10:57.993Z,1010.92
2017-08-11T08:11:57.909Z,1010.95
2017-08-11T08:12:52.084Z,1010.93
2017-08-11T08:13:47.044Z,1010.99
2017-08-11T08:14:36.120Z,1010.95
2017-08-11T08:15:30.127Z,1010.94
2017-08-11T08:16:19.195Z,1010.91
2017-08-11T08:17:13.302Z,1010.97
2017-08-11T08:18:08.243Z,1010.95
2017-08-11T08:18:56.393Z,1011.01
2017-08-11T08:19:51.432Z,1011.02
2017-08-11T08:20:45.372Z,1010.94
2017-08-11T08:21:39.506Z,1011.01
2017-08-11T08:22:34.424Z,1011.04
2017-08-11T08:23:29.578Z,1011.07
2017-08-11T08:24:23.600Z,1011.05
2017-08-11T08:25:18.632Z,1010.97
2017-08-11T08:26:06.719Z,1011.05
2017-08-11T08:27:07.754Z,1011.11
2017-08-11T08:28:01.763Z,1011.19
2017-08-11T08:28:56.839Z,1011.14
2017-08-11T08:29:50.899Z,1011.14
2017-08-11T08:30:44.901Z,1011.07
2017-08-11T08:31:45.031Z,1011.09
2017-08-11T08:32:39.016Z,1011.20
2017-08-11T08:33:32.974Z,1011.16
2017-08-11T08:34:27.086Z,1011.15
2017-08-11T08:35:21.198Z,1011.09
2017-08-11T08:36:21.161Z,1011.12
2017-08-11T08:37:16.199Z,1011.14
2017-08-11T08:38:11.294Z,1011.20
2017-08-11T08:38:59.333Z,1011.25
2017-08-11T08:39:54.244Z,1011.31
2017-08-11T08:40:48.455Z,1011.26
2017-08-11T08:41:48.429Z,1011.24
2017-08-11T08:42:37.468Z,1011.12
2017-08-11T08:43:32.531Z,1011.05
2017-08-11T08:44:26.497Z,1011.04
2017-08-11T08:45:20.646Z,1011.12
2017-08-11T08:46:15.658Z,1011.21
2017-08-11T08:47:10.668Z,1011.20
2017-08-11T08:48:05.754Z,1011.24
2017-08-11T08:49:00.856Z,1011.27
2017-08-11T08:49:55.838Z,1011.24
2017-08-11T08:50:50.848Z,1011.25
2017-08-11T08:51:51.943Z,1011.19
2017-08-11T08:52:45.976Z,1011.20
2017-08-11T08:53:40.080Z,1011.20
2017-08-11T08:54:34.011Z,1011.22
2017-08-11T08:55:29.135Z,1011.15
2017-08-11T08:56:17.080Z,1011.14
2017-08-11T08:57:11.287Z,1011.16
2017-08-11T08:58:00.272Z,1011.09
2017-08-11T08:58:54.318Z,1011.02
2017-08-11T08:59:54.282Z,1011.00
2017-08-11T09:00:43.413Z,1010.97
2017-08-11T09:01:31.422Z,1010.95
2017-08-11T09:02:31.609Z,1010.88
2017-08-11T09:03:19.552Z,1010.94
2017-08-11T09:04:14.620Z,1011.05
2017-08-11T09:05:14.652Z,1011.12
2017-08-11T09:06:09.677Z,1011.05
2017-08-11T09:07:09.663Z,1011.06
2017-08-11T09:08:09.779Z,1011.12
2017-08-11T09:09:09.791Z,1011.11
2017-08-11T09:09:58.778Z,1011.17
2017-08-11T09:10:58.819Z,1011.10
2017-08-11T09:11:58.927Z,1011.13
2017-08-11T09:12:52.962Z,1011.07
2017-08-11T09:13:42.079Z,1011.11
2017-08-11T09:14:36.035Z,1011.13
2017-08-11T09:15:30.056Z,1011.15
2017-08-11T09:16:24.131Z,1011.25
2017-08-11T09:17:19.188Z,1011.22
2017-08-11T09:18:08.331Z,1011.23
2017-08-11T09:19:02.384Z,1011.09
2017-08-11T09:19:57.367Z,1011.11
2017-08-11T09:20:57.562Z,1011.09
2017-08-11T09:21:51.533Z,1011.07
2017-08-11T09:22:57.504Z,1011.07
2017-08-11T09:23:52.675Z,1011.16
2017-08-11T09:24:40.604Z,1011.17
2017-08-11T09:25:40.648Z,1011.14
2017-08-11T09:26:35.639Z,1011.17
2017-08-11T09:27:29.685Z,1011.14
2017-08-11T09:28:29.862Z,1011.14
2017-08-11T09:29:18.740Z,1011.20
2017-08-11T09:30:13.881Z,1011.17
2017-08-11T09:31:13.894Z,1011.20
2017-08-11T09:32:08.900Z,1011.18
2017-08-11T09:33:02.975Z,1011.22
2017-08-11T09:33:57.968Z,1011.21
2017-08-11T09:34:53.064Z,1011.21
2017-08-11T09:35:54.149Z,1011.23
2017-08-11T09:36:54.183Z,1011.25
2017-08-11T09:37:48.280Z,1011.30
2017-08-11T09:38:42.234Z,1011.39
2017-08-11T09:39:42.304Z,1011.34
2017-08-11T09:40:36.220Z,1011.31
2017-08-11T09:41:31.326Z,1011.31
2017-08-11T09:42:25.366Z,1011.28
2017-08-11T09:43:14.478Z,1011.30
2017-08-11T09:44:09.530Z,1011.28
2017-08-11T09:45:03.496Z,1011.31
2017-08-11T09:45:58.574Z,1011.28
2017-08-11T09:46:53.717Z,1011.25
2017-08-11T09:47:47.770Z,1011.22
2017-08-11T09:48:47.736Z,1011.24
2017-08-11T09:49:36.778Z,1011.28
2017-08-11T09:50:30.862Z,1011.17
2017-08-11T09:51:24.875Z,1011.09
2017-08-11T09:52:12.986Z,1011.11
2017-08-11T09:53:00.930Z,1011.12
2017-08-11T09:54:00.983Z,1011.14
2017-08-11T09:54:56.142Z,1011.19
2017-08-11T09:55:45.035Z,1011.09
2017-08-11T09:56:45.191Z,1011.13
2017-08-11T09:57:34.185Z,1011.11
2017-08-11T09:58:29.220Z,1011.17
2017-08-11T09:59:29.329Z,1011.14
2017-08-11T10:00:23.285Z,1011.18
2017-08-11T10:01:17.418Z,1011.09
2017-08-11T10:02:11.416Z,1011.01
2017-08-11T10:03:00.485Z,1011.02
2017-08-11T10:03:49.509Z,1010.99
2017-08-11T10:04:49.693Z,1010.98
2017-08-11T10:05:49.718Z,1011.02
2017-08-11T10:06:49.738Z,1011.01
2017-08-11T10:07:49.708Z,1011.00
2017-08-11T10:08:43.797Z,1010.99
2017-08-11T10:09:43.780Z,1011.01
2017-08-11T10:10:38.841Z,1010.97
2017-08-11T10:11:32.908Z,1010.99
2017-08-11T10:12:20.928Z,1011.01
2017-08-11T10:13:14.914Z,1011.09
2017-08-11T10:14:08.986Z,1011.05
2017-08-11T10:15:03.118Z,1011.02
2017-08-11T10:16:03.087Z,1011.08
2017-08-11T10:16:57.216Z,1011.05
2017-08-11T10:17:57.316Z,1011.11
2017-08-11T10:18:52.202Z,1011.11
2017-08-11T10:19:40.263Z,1011.11
2017-08-11T10:20:40.338Z,1011.11
2017-08-11T10:21:35.376Z,1011.13
2017-08-11T10:22:30.458Z,1011.12
2017-08-11T10:23:30.546Z,1011.14
2017-08-11T10:24:30.562Z,1011.15
2017-08-11T10:25:24.671Z,1011.18
2017-08-11T10:26:24.584Z,1011.17
2017-08-11T10:27:18.818Z,1011.20
2017-08-11T10:28:13.727Z,1011.24
2017-08-11T10:29:07.763Z,1011.20
2017-08-11T10:30:07.755Z,1011.21
2017-08-11T10:30:55.876Z,1011.27
2017-08-11T10:31:44.858Z,1011.29
2017-08-11T10:32:38.864Z,1011.41
2017-08-11T10:33:34.103Z,1011.38
2017-08-11T10:34:33.975Z,1011.36
2017-08-11T10:35:23.059Z,1011.35
2017-08-11T10:36:17.088Z,1011.27
2017-08-11T10:37:05.158Z,1011.21
2017-08-11T10:37:54.304Z,1011.11
2017-08-11T10:38:48.214Z,1011.13
2017-08-11T10:39:48.239Z,1011.14
2017-08-11T10:40:37.321Z,1011.11
2017-08-11T10:41:26.367Z,1011.09
2017-08-11T10:42:21.310Z,1011.05
2017-08-11T10:43:27.427Z,1011.04
2017-08-11T10:44:21.468Z,1011.04
2017-08-11T10:45:15.468Z,1011.08
2017-08-11T10:46:10.600Z,1011.08
2017-08-11T10:47:04.633Z,1011.11
2017-08-11T10:47:59.701Z,1011.10
2017-08-11T10:48:53.828Z,1011.07
2017-08-11T10:49:47.744Z,1011.08
2017-08-11T10:50:35.826Z,1011.14